sensor_id;sensor_type;location;lat;lon;timestamp;temperature;humidity
3360;DHT22;1693;49.602;11.046;2022-08-11T00:01:10;16.10;99.90
3360;DHT22;1693;49.602;11.046;2022-08-11T00:03:45;16.10;99.90
3360;DHT22;1693;49.602;11.046;2022-08-11T00:06:14;16.10;99.90
3360;DHT22;1693;49.602;11.046;2022-08-11T00:08:50;16.00;99.90
3360;DHT22;1693;49.602;11.046;2022-08-11T00:11:19;16.00;99.90
3360;DHT22;1693;49.602;11.046;2022-08-11T00:13:48;16.00;99.90
3360;DHT22;1693;49.602;11.046;2022-08-11T00:16:17;16.00;99.90
3360;DHT22;1693;49.602;11.046;2022-08-11T00:18:47;16.00;99.90
3360;DHT22;1693;49.602;11.046;2022-08-11T00:21:15;16.00;99.90
3360;DHT22;1693;49.602;11.046;2022-08-11T00:23:45;15.90;99.90
3360;DHT22;1693;49.602;11.046;2022-08-11T00:26:14;15.90;99.90
3360;DHT22;1693;49.602;11.046;2022-08-11T00:28:42;15.80;99.90
3360;DHT22;1693;49.602;11.046;2022-08-11T00:31:22;15.80;99.90
3360;DHT22;1693;49.602;11.046;2022-08-11T00:33:50;15.70;99.90
3360;DHT22;1693;49.602;11.046;2022-08-11T00:36:20;15.70;99.90
3360;DHT22;1693;49.602;11.046;2022-08-11T00:38:50;15.60;99.90
3360;DHT22;1693;49.602;11.046;2022-08-11T00:41:33;15.60;99.90
3360;DHT22;1693;49.602;11.046;2022-08-11T00:44:31;15.60;99.90
3360;DHT22;1693;49.602;11.046;2022-08-11T00:47:13;15.60;99.90
3360;DHT22;1693;49.602;11.046;2022-08-11T00:49:57;15.60;99.90
3360;DHT22;1693;49.602;11.046;2022-08-11T00:52:43;15.50;99.90
3360;DHT22;1693;49.602;11.046;2022-08-11T00:58:55;15.40;99.90
3360;DHT22;1693;49.602;11.046;2022-08-11T01:01:38;15.40;99.90
3360;DHT22;1693;49.602;11.046;2022-08-11T01:04:29;15.40;99.90
3360;DHT22;1693;49.602;11.046;2022-08-11T01:10:53;15.50;99.90
3360;DHT22;1693;49.602;11.046;2022-08-11T01:13:54;15.50;99.90
3360;DHT22;1693;49.602;11.046;2022-08-11T01:19:50;15.40;99.90
3360;DHT22;1693;49.602;11.046;2022-08-11T01:28:52;15.40;99.90
3360;DHT22;1693;49.602;11.046;2022-08-11T01:31:49;15.40;99.90
3360;DHT22;1693;49.602;11.046;2022-08-11T01:44:38;15.40;99.90
3360;DHT22;1693;49.602;11.046;2022-08-11T01:47:20;15.40;99.90
3360;DHT22;1693;49.602;11.046;2022-08-11T01:50:14;15.30;99.90
3360;DHT22;1693;49.602;11.046;2022-08-11T01:53:00;15.30;99.90
3360;DHT22;1693;49.602;11.046;2022-08-11T01:55:36;15.30;99.90
3360;DHT22;1693;49.602;11.046;2022-08-11T01:58:09;15.30;99.90
3360;DHT22;1693;49.602;11.046;2022-08-11T02:00:49;15.30;99.90
3360;DHT22;1693;49.602;11.046;2022-08-11T02:03:23;15.20;99.90
3360;DHT22;1693;49.602;11.046;2022-08-11T02:06:02;15.20;99.90
3360;DHT22;1693;49.602;11.046;2022-08-11T02:08:58;15.20;99.90
3360;DHT22;1693;49.602;11.046;2022-08-11T02:11:29;15.10;99.90
3360;DHT22;1693;49.602;11.046;2022-08-11T02:14:02;15.20;99.90
3360;DHT22;1693;49.602;11.046;2022-08-11T02:16:47;15.10;99.90
3360;DHT22;1693;49.602;11.046;2022-08-11T02:19:25;15.10;99.90
3360;DHT22;1693;49.602;11.046;2022-08-11T02:22:24;15.10;99.90
3360;DHT22;1693;49.602;11.046;2022-08-11T02:25:21;15.10;99.90
3360;DHT22;1693;49.602;11.046;2022-08-11T02:27:58;15.10;99.90
3360;DHT22;1693;49.602;11.046;2022-08-11T02:30:31;15.10;99.90
3360;DHT22;1693;49.602;11.046;2022-08-11T02:33:12;15.10;99.90
3360;DHT22;1693;49.602;11.046;2022-08-11T02:35:57;15.10;99.90
3360;DHT22;1693;49.602;11.046;2022-08-11T02:38:29;15.10;99.90
3360;DHT22;1693;49.602;11.046;2022-08-11T02:41:09;15.10;99.90
3360;DHT22;1693;49.602;11.046;2022-08-11T02:44:10;15.10;99.90
3360;DHT22;1693;49.602;11.046;2022-08-11T02:47:02;15.10;99.90
3360;DHT22;1693;49.602;11.046;2022-08-11T02:49:46;15.10;99.90
3360;DHT22;1693;49.602;11.046;2022-08-11T02:52:28;15.10;99.90
3360;DHT22;1693;49.602;11.046;2022-08-11T02:55:13;15.20;99.90
3360;DHT22;1693;49.602;11.046;2022-08-11T02:57:50;15.20;99.90
3360;DHT22;1693;49.602;11.046;2022-08-11T03:00:19;15.20;99.90
3360;DHT22;1693;49.602;11.046;2022-08-11T03:03:09;15.20;99.90
3360;DHT22;1693;49.602;11.046;2022-08-11T03:05:52;15.20;99.90
3360;DHT22;1693;49.602;11.046;2022-08-11T03:08:28;15.20;99.90
3360;DHT22;1693;49.602;11.046;2022-08-11T03:11:04;15.20;99.90
3360;DHT22;1693;49.602;11.046;2022-08-11T03:14:01;15.20;99.90
3360;DHT22;1693;49.602;11.046;2022-08-11T03:16:53;15.20;99.90
3360;DHT22;1693;49.602;11.046;2022-08-11T03:19:27;15.10;99.90
3360;DHT22;1693;49.602;11.046;2022-08-11T03:22:04;15.10;99.90
3360;DHT22;1693;49.602;11.046;2022-08-11T03:24:48;15.10;99.90
3360;DHT22;1693;49.602;11.046;2022-08-11T03:27:36;15.10;99.90
3360;DHT22;1693;49.602;11.046;2022-08-11T03:30:12;15.00;99.90
3360;DHT22;1693;49.602;11.046;2022-08-11T03:32:56;15.00;99.90
3360;DHT22;1693;49.602;11.046;2022-08-11T03:35:51;15.00;99.90
3360;DHT22;1693;49.602;11.046;2022-08-11T03:38:22;14.90;99.90
3360;DHT22;1693;49.602;11.046;2022-08-11T03:41:05;14.80;99.90
3360;DHT22;1693;49.602;11.046;2022-08-11T03:44:03;14.80;99.90
3360;DHT22;1693;49.602;11.046;2022-08-11T03:46:51;14.70;99.90
3360;DHT22;1693;49.602;11.046;2022-08-11T03:49:29;14.60;99.90
3360;DHT22;1693;49.602;11.046;2022-08-11T03:52:10;14.60;99.90
3360;DHT22;1693;49.602;11.046;2022-08-11T03:54:46;14.50;99.90
3360;DHT22;1693;49.602;11.046;2022-08-11T04:00:38;14.40;99.90
3360;DHT22;1693;49.602;11.046;2022-08-11T04:03:27;14.40;99.90
3360;DHT22;1693;49.602;11.046;2022-08-11T04:06:35;14.30;99.90
3360;DHT22;1693;49.602;11.046;2022-08-11T04:12:45;14.10;99.90
3360;DHT22;1693;49.602;11.046;2022-08-11T04:15:59;14.20;99.90
3360;DHT22;1693;49.602;11.046;2022-08-11T04:19:00;14.20;99.90
3360;DHT22;1693;49.602;11.046;2022-08-11T04:21:56;14.10;99.90
3360;DHT22;1693;49.602;11.046;2022-08-11T04:24:53;14.20;99.90
3360;DHT22;1693;49.602;11.046;2022-08-11T04:30:39;14.20;99.90
3360;DHT22;1693;49.602;11.046;2022-08-11T04:33:32;14.10;99.90
3360;DHT22;1693;49.602;11.046;2022-08-11T04:36:17;14.10;99.90
3360;DHT22;1693;49.602;11.046;2022-08-11T04:39:14;14.10;99.90
3360;DHT22;1693;49.602;11.046;2022-08-11T04:42:18;14.20;99.90
3360;DHT22;1693;49.602;11.046;2022-08-11T04:45:33;14.20;99.90
3360;DHT22;1693;49.602;11.046;2022-08-11T04:48:46;14.20;99.90
3360;DHT22;1693;49.602;11.046;2022-08-11T04:51:47;14.30;99.90
3360;DHT22;1693;49.602;11.046;2022-08-11T04:55:06;14.40;99.90
3360;DHT22;1693;49.602;11.046;2022-08-11T04:58:08;14.50;99.90
3360;DHT22;1693;49.602;11.046;2022-08-11T05:01:15;14.50;99.90
3360;DHT22;1693;49.602;11.046;2022-08-11T05:04:23;14.60;99.90
3360;DHT22;1693;49.602;11.046;2022-08-11T05:07:35;14.60;99.90
3360;DHT22;1693;49.602;11.046;2022-08-11T05:10:18;14.80;99.90
3360;DHT22;1693;49.602;11.046;2022-08-11T05:12:52;15.00;99.90
3360;DHT22;1693;49.602;11.046;2022-08-11T05:15:32;15.10;99.90
3360;DHT22;1693;49.602;11.046;2022-08-11T05:18:22;15.20;99.90
3360;DHT22;1693;49.602;11.046;2022-08-11T05:21:24;15.40;99.90
3360;DHT22;1693;49.602;11.046;2022-08-11T05:24:16;15.40;99.90
3360;DHT22;1693;49.602;11.046;2022-08-11T05:27:04;15.60;99.90
3360;DHT22;1693;49.602;11.046;2022-08-11T05:29:59;15.70;99.90
3360;DHT22;1693;49.602;11.046;2022-08-11T05:32:45;15.80;99.90
3360;DHT22;1693;49.602;11.046;2022-08-11T05:35:42;16.10;99.90
3360;DHT22;1693;49.602;11.046;2022-08-11T05:38:15;16.40;99.90
3360;DHT22;1693;49.602;11.046;2022-08-11T05:41:03;16.60;99.90
3360;DHT22;1693;49.602;11.046;2022-08-11T05:43:50;16.90;99.90
3360;DHT22;1693;49.602;11.046;2022-08-11T05:46:38;17.20;99.90
3360;DHT22;1693;49.602;11.046;2022-08-11T05:49:24;17.40;99.90
3360;DHT22;1693;49.602;11.046;2022-08-11T05:52:15;17.70;99.90
3360;DHT22;1693;49.602;11.046;2022-08-11T05:55:02;17.90;99.90
3360;DHT22;1693;49.602;11.046;2022-08-11T05:57:53;18.20;99.90
3360;DHT22;1693;49.602;11.046;2022-08-11T06:00:21;18.40;99.90
3360;DHT22;1693;49.602;11.046;2022-08-11T06:02:50;18.70;99.90
3360;DHT22;1693;49.602;11.046;2022-08-11T06:05:20;18.90;99.90
3360;DHT22;1693;49.602;11.046;2022-08-11T06:07:48;19.10;99.90
3360;DHT22;1693;49.602;11.046;2022-08-11T06:10:27;19.30;99.90
3360;DHT22;1693;49.602;11.046;2022-08-11T06:12:58;19.50;99.90
3360;DHT22;1693;49.602;11.046;2022-08-11T06:15:27;19.80;99.90
3360;DHT22;1693;49.602;11.046;2022-08-11T06:17:58;19.90;99.90
3360;DHT22;1693;49.602;11.046;2022-08-11T06:20:26;20.10;99.90
3360;DHT22;1693;49.602;11.046;2022-08-11T06:23:05;20.20;99.90
3360;DHT22;1693;49.602;11.046;2022-08-11T06:25:35;20.30;99.90
3360;DHT22;1693;49.602;11.046;2022-08-11T06:28:05;20.40;99.90
3360;DHT22;1693;49.602;11.046;2022-08-11T06:30:34;20.60;99.90
3360;DHT22;1693;49.602;11.046;2022-08-11T06:33:07;20.80;99.90
3360;DHT22;1693;49.602;11.046;2022-08-11T06:35:43;21.00;99.90
3360;DHT22;1693;49.602;11.046;2022-08-11T06:38:22;21.10;99.90
3360;DHT22;1693;49.602;11.046;2022-08-11T06:40:54;21.20;99.90
3360;DHT22;1693;49.602;11.046;2022-08-11T06:43:48;21.40;99.70
3360;DHT22;1693;49.602;11.046;2022-08-11T06:46:24;21.60;99.40
3360;DHT22;1693;49.602;11.046;2022-08-11T06:48:53;21.70;98.90
3360;DHT22;1693;49.602;11.046;2022-08-11T06:51:21;21.80;98.30
3360;DHT22;1693;49.602;11.046;2022-08-11T06:53:59;21.80;97.50
3360;DHT22;1693;49.602;11.046;2022-08-11T06:56:29;21.80;97.30
3360;DHT22;1693;49.602;11.046;2022-08-11T06:59:17;22.00;96.90
3360;DHT22;1693;49.602;11.046;2022-08-11T07:02:06;22.20;96.50
3360;DHT22;1693;49.602;11.046;2022-08-11T07:04:40;22.20;96.70
3360;DHT22;1693;49.602;11.046;2022-08-11T07:07:30;22.40;96.70
3360;DHT22;1693;49.602;11.046;2022-08-11T07:10:25;22.40;94.80
3360;DHT22;1693;49.602;11.046;2022-08-11T07:13:16;22.50;94.80
3360;DHT22;1693;49.602;11.046;2022-08-11T07:16:05;22.50;93.90
3360;DHT22;1693;49.602;11.046;2022-08-11T07:18:35;22.60;93.90
3360;DHT22;1693;49.602;11.046;2022-08-11T07:21:29;22.80;93.80
3360;DHT22;1693;49.602;11.046;2022-08-11T07:24:17;23.00;94.10
3360;DHT22;1693;49.602;11.046;2022-08-11T07:27:07;23.20;93.60
3360;DHT22;1693;49.602;11.046;2022-08-11T07:29:55;23.20;93.10
3360;DHT22;1693;49.602;11.046;2022-08-11T07:32:27;23.20;92.20
3360;DHT22;1693;49.602;11.046;2022-08-11T07:34:58;23.30;91.60
3360;DHT22;1693;49.602;11.046;2022-08-11T07:37:30;23.30;91.00
3360;DHT22;1693;49.602;11.046;2022-08-11T07:39:58;23.40;91.20
3360;DHT22;1693;49.602;11.046;2022-08-11T07:42:30;23.40;91.60
3360;DHT22;1693;49.602;11.046;2022-08-11T07:45:04;23.50;90.40
3360;DHT22;1693;49.602;11.046;2022-08-11T07:47:51;23.50;90.00
3360;DHT22;1693;49.602;11.046;2022-08-11T07:50:40;23.70;90.00
3360;DHT22;1693;49.602;11.046;2022-08-11T07:53:25;23.80;89.90
3360;DHT22;1693;49.602;11.046;2022-08-11T07:55:55;23.90;89.40
3360;DHT22;1693;49.602;11.046;2022-08-11T07:58:24;24.10;88.90
3360;DHT22;1693;49.602;11.046;2022-08-11T08:01:11;24.10;87.70
3360;DHT22;1693;49.602;11.046;2022-08-11T08:03:58;24.20;87.00
3360;DHT22;1693;49.602;11.046;2022-08-11T08:06:43;24.40;86.50
3360;DHT22;1693;49.602;11.046;2022-08-11T08:09:28;24.40;81.80
3360;DHT22;1693;49.602;11.046;2022-08-11T08:12:19;24.40;83.90
3360;DHT22;1693;49.602;11.046;2022-08-11T08:15:06;24.40;81.70
3360;DHT22;1693;49.602;11.046;2022-08-11T08:17:52;24.40;80.30
3360;DHT22;1693;49.602;11.046;2022-08-11T08:20:27;24.50;78.60
3360;DHT22;1693;49.602;11.046;2022-08-11T08:22:57;24.70;78.10
3360;DHT22;1693;49.602;11.046;2022-08-11T08:25:26;24.70;77.10
3360;DHT22;1693;49.602;11.046;2022-08-11T08:27:55;24.80;78.20
3360;DHT22;1693;49.602;11.046;2022-08-11T08:30:24;25.00;79.40
3360;DHT22;1693;49.602;11.046;2022-08-11T08:33:11;25.10;77.10
3360;DHT22;1693;49.602;11.046;2022-08-11T08:35:41;25.20;74.90
3360;DHT22;1693;49.602;11.046;2022-08-11T08:38:09;25.30;74.60
3360;DHT22;1693;49.602;11.046;2022-08-11T08:40:38;25.40;73.70
3360;DHT22;1693;49.602;11.046;2022-08-11T08:43:08;25.30;70.00
3360;DHT22;1693;49.602;11.046;2022-08-11T08:45:37;25.40;71.00
3360;DHT22;1693;49.602;11.046;2022-08-11T08:48:10;25.50;70.70
3360;DHT22;1693;49.602;11.046;2022-08-11T08:50:46;25.50;70.00
3360;DHT22;1693;49.602;11.046;2022-08-11T08:53:34;25.60;69.90
3360;DHT22;1693;49.602;11.046;2022-08-11T08:56:06;25.70;68.90
3360;DHT22;1693;49.602;11.046;2022-08-11T08:58:34;25.80;68.30
3360;DHT22;1693;49.602;11.046;2022-08-11T09:01:02;25.80;66.80
3360;DHT22;1693;49.602;11.046;2022-08-11T09:03:30;26.00;66.60
3360;DHT22;1693;49.602;11.046;2022-08-11T09:06:03;25.90;65.00
3360;DHT22;1693;49.602;11.046;2022-08-11T09:08:32;25.90;65.50
3360;DHT22;1693;49.602;11.046;2022-08-11T09:11:00;26.00;65.30
3360;DHT22;1693;49.602;11.046;2022-08-11T09:13:46;26.10;65.50
3360;DHT22;1693;49.602;11.046;2022-08-11T09:16:15;26.30;64.70
3360;DHT22;1693;49.602;11.046;2022-08-11T09:18:42;26.40;63.20
3360;DHT22;1693;49.602;11.046;2022-08-11T09:21:12;26.50;63.20
3360;DHT22;1693;49.602;11.046;2022-08-11T09:23:41;26.50;60.90
3360;DHT22;1693;49.602;11.046;2022-08-11T09:26:27;26.50;61.20
3360;DHT22;1693;49.602;11.046;2022-08-11T09:29:27;26.50;62.90
3360;DHT22;1693;49.602;11.046;2022-08-11T09:31:57;26.60;61.80
3360;DHT22;1693;49.602;11.046;2022-08-11T09:34:24;26.60;62.60
3360;DHT22;1693;49.602;11.046;2022-08-11T09:36:53;26.80;62.40
3360;DHT22;1693;49.602;11.046;2022-08-11T09:39:40;26.90;61.40
3360;DHT22;1693;49.602;11.046;2022-08-11T09:42:25;27.00;59.50
3360;DHT22;1693;49.602;11.046;2022-08-11T09:45:13;26.90;58.70
3360;DHT22;1693;49.602;11.046;2022-08-11T09:47:39;27.00;58.20
3360;DHT22;1693;49.602;11.046;2022-08-11T09:50:08;26.90;57.90
3360;DHT22;1693;49.602;11.046;2022-08-11T09:52:39;26.90;57.50
3360;DHT22;1693;49.602;11.046;2022-08-11T09:55:07;27.10;59.50
3360;DHT22;1693;49.602;11.046;2022-08-11T09:57:38;27.00;57.80
3360;DHT22;1693;49.602;11.046;2022-08-11T10:00:28;27.10;58.40
3360;DHT22;1693;49.602;11.046;2022-08-11T10:02:56;27.20;58.70
3360;DHT22;1693;49.602;11.046;2022-08-11T10:05:28;27.30;56.50
3360;DHT22;1693;49.602;11.046;2022-08-11T10:08:17;27.30;56.50
3360;DHT22;1693;49.602;11.046;2022-08-11T10:10:45;27.60;57.70
3360;DHT22;1693;49.602;11.046;2022-08-11T10:13:16;27.70;56.00
3360;DHT22;1693;49.602;11.046;2022-08-11T10:15:49;27.90;56.20
3360;DHT22;1693;49.602;11.046;2022-08-11T10:18:17;27.90;56.20
3360;DHT22;1693;49.602;11.046;2022-08-11T10:21:06;28.00;55.30
3360;DHT22;1693;49.602;11.046;2022-08-11T10:23:37;28.10;55.70
3360;DHT22;1693;49.602;11.046;2022-08-11T10:26:22;28.10;55.90
3360;DHT22;1693;49.602;11.046;2022-08-11T10:29:09;28.10;55.90
3360;DHT22;1693;49.602;11.046;2022-08-11T10:31:51;28.00;55.40
3360;DHT22;1693;49.602;11.046;2022-08-11T10:34:37;28.20;56.20
3360;DHT22;1693;49.602;11.046;2022-08-11T10:37:05;28.50;56.10
3360;DHT22;1693;49.602;11.046;2022-08-11T10:42:09;28.70;55.20
3360;DHT22;1693;49.602;11.046;2022-08-11T10:45:02;28.80;54.70
3360;DHT22;1693;49.602;11.046;2022-08-11T10:47:58;28.60;53.00
3360;DHT22;1693;49.602;11.046;2022-08-11T10:51:06;28.70;55.10
3360;DHT22;1693;49.602;11.046;2022-08-11T10:54:01;28.90;52.20
3360;DHT22;1693;49.602;11.046;2022-08-11T10:56:48;28.80;53.00
3360;DHT22;1693;49.602;11.046;2022-08-11T10:59:33;29.00;51.50
3360;DHT22;1693;49.602;11.046;2022-08-11T11:02:00;29.10;52.30
3360;DHT22;1693;49.602;11.046;2022-08-11T11:04:32;29.20;52.30
3360;DHT22;1693;49.602;11.046;2022-08-11T11:07:09;29.40;51.10
3360;DHT22;1693;49.602;11.046;2022-08-11T11:09:42;29.40;51.30
3360;DHT22;1693;49.602;11.046;2022-08-11T11:12:17;29.70;49.80
3360;DHT22;1693;49.602;11.046;2022-08-11T11:15:12;29.60;49.20
3360;DHT22;1693;49.602;11.046;2022-08-11T11:18:00;29.30;48.40
3360;DHT22;1693;49.602;11.046;2022-08-11T11:20:34;28.90;48.20
3360;DHT22;1693;49.602;11.046;2022-08-11T11:23:08;28.80;48.70
3360;DHT22;1693;49.602;11.046;2022-08-11T11:26:04;29.30;50.40
3360;DHT22;1693;49.602;11.046;2022-08-11T11:28:57;29.50;47.30
3360;DHT22;1693;49.602;11.046;2022-08-11T11:31:34;29.70;46.70
3360;DHT22;1693;49.602;11.046;2022-08-11T11:34:14;30.10;47.60
3360;DHT22;1693;49.602;11.046;2022-08-11T11:36:47;30.40;48.30
3360;DHT22;1693;49.602;11.046;2022-08-11T11:39:18;30.50;46.90
3360;DHT22;1693;49.602;11.046;2022-08-11T11:41:47;30.30;46.00
3360;DHT22;1693;49.602;11.046;2022-08-11T11:44:16;30.50;46.10
3360;DHT22;1693;49.602;11.046;2022-08-11T11:46:50;30.50;45.40
3360;DHT22;1693;49.602;11.046;2022-08-11T11:49:22;30.60;46.00
3360;DHT22;1693;49.602;11.046;2022-08-11T11:51:53;30.30;45.10
3360;DHT22;1693;49.602;11.046;2022-08-11T11:54:23;30.80;45.90
3360;DHT22;1693;49.602;11.046;2022-08-11T11:56:52;31.00;44.10
3360;DHT22;1693;49.602;11.046;2022-08-11T11:59:21;31.40;44.30
3360;DHT22;1693;49.602;11.046;2022-08-11T12:02:06;31.70;44.40
3360;DHT22;1693;49.602;11.046;2022-08-11T12:04:36;31.80;42.50
3360;DHT22;1693;49.602;11.046;2022-08-11T12:07:04;31.70;42.30
3360;DHT22;1693;49.602;11.046;2022-08-11T12:09:47;31.80;44.00
3360;DHT22;1693;49.602;11.046;2022-08-11T12:12:15;32.10;42.80
3360;DHT22;1693;49.602;11.046;2022-08-11T12:15:01;31.70;42.00
3360;DHT22;1693;49.602;11.046;2022-08-11T12:17:31;32.00;42.20
3360;DHT22;1693;49.602;11.046;2022-08-11T12:19:58;32.40;41.90
3360;DHT22;1693;49.602;11.046;2022-08-11T12:22:25;32.10;41.60
3360;DHT22;1693;49.602;11.046;2022-08-11T12:25:10;32.40;41.50
3360;DHT22;1693;49.602;11.046;2022-08-11T12:27:56;32.50;41.30
3360;DHT22;1693;49.602;11.046;2022-08-11T12:36:59;34.20;39.50
3360;DHT22;1693;49.602;11.046;2022-08-11T12:39:34;34.60;38.50
3360;DHT22;1693;49.602;11.046;2022-08-11T12:42:20;35.00;40.00
3360;DHT22;1693;49.602;11.046;2022-08-11T12:45:09;35.30;38.80
3360;DHT22;1693;49.602;11.046;2022-08-11T12:48:07;37.00;39.20
3360;DHT22;1693;49.602;11.046;2022-08-11T12:51:00;36.40;37.20
3360;DHT22;1693;49.602;11.046;2022-08-11T12:53:52;36.80;37.40
3360;DHT22;1693;49.602;11.046;2022-08-11T12:56:20;37.40;36.40
3360;DHT22;1693;49.602;11.046;2022-08-11T12:59:06;36.70;35.90
3360;DHT22;1693;49.602;11.046;2022-08-11T13:01:52;37.60;36.30
3360;DHT22;1693;49.602;11.046;2022-08-11T13:07:17;38.80;33.60
3360;DHT22;1693;49.602;11.046;2022-08-11T13:09:46;39.70;35.10
3360;DHT22;1693;49.602;11.046;2022-08-11T13:12:14;39.30;32.70
3360;DHT22;1693;49.602;11.046;2022-08-11T13:15:01;38.10;33.00
3360;DHT22;1693;49.602;11.046;2022-08-11T13:17:29;38.50;33.80
3360;DHT22;1693;49.602;11.046;2022-08-11T13:19:59;39.30;33.60
3360;DHT22;1693;49.602;11.046;2022-08-11T13:22:27;39.40;32.30
3360;DHT22;1693;49.602;11.046;2022-08-11T13:24:57;38.50;31.50
3360;DHT22;1693;49.602;11.046;2022-08-11T13:27:24;38.60;32.00
3360;DHT22;1693;49.602;11.046;2022-08-11T13:29:52;40.90;31.70
3360;DHT22;1693;49.602;11.046;2022-08-11T13:32:41;41.40;30.60
3360;DHT22;1693;49.602;11.046;2022-08-11T13:35:11;42.10;31.50
3360;DHT22;1693;49.602;11.046;2022-08-11T13:37:41;42.10;30.30
3360;DHT22;1693;49.602;11.046;2022-08-11T13:40:12;42.40;30.60
3360;DHT22;1693;49.602;11.046;2022-08-11T13:42:40;42.00;29.80
3360;DHT22;1693;49.602;11.046;2022-08-11T13:45:10;40.30;29.50
3360;DHT22;1693;49.602;11.046;2022-08-11T13:47:38;40.50;29.90
3360;DHT22;1693;49.602;11.046;2022-08-11T13:50:07;40.60;30.10
3360;DHT22;1693;49.602;11.046;2022-08-11T13:52:36;39.60;30.00
3360;DHT22;1693;49.602;11.046;2022-08-11T13:55:07;40.40;29.60
3360;DHT22;1693;49.602;11.046;2022-08-11T13:57:37;40.40;30.00
3360;DHT22;1693;49.602;11.046;2022-08-11T14:00:07;40.50;29.60
3360;DHT22;1693;49.602;11.046;2022-08-11T14:02:42;41.70;29.90
3360;DHT22;1693;49.602;11.046;2022-08-11T14:05:13;42.40;29.20
3360;DHT22;1693;49.602;11.046;2022-08-11T14:07:46;42.00;28.50
3360;DHT22;1693;49.602;11.046;2022-08-11T14:10:18;42.10;28.60
3360;DHT22;1693;49.602;11.046;2022-08-11T14:12:52;41.50;28.60
3360;DHT22;1693;49.602;11.046;2022-08-11T14:15:42;41.40;29.20
3360;DHT22;1693;49.602;11.046;2022-08-11T14:18:18;42.30;29.00
3360;DHT22;1693;49.602;11.046;2022-08-11T14:20:49;42.30;29.20
3360;DHT22;1693;49.602;11.046;2022-08-11T14:23:38;43.00;29.70
3360;DHT22;1693;49.602;11.046;2022-08-11T14:26:06;42.80;28.20
3360;DHT22;1693;49.602;11.046;2022-08-11T14:29:22;41.90;28.60
3360;DHT22;1693;49.602;11.046;2022-08-11T14:32:37;42.10;29.30
3360;DHT22;1693;49.602;11.046;2022-08-11T14:35:15;43.10;28.50
3360;DHT22;1693;49.602;11.046;2022-08-11T14:37:43;42.40;28.30
3360;DHT22;1693;49.602;11.046;2022-08-11T14:40:11;43.60;29.60
3360;DHT22;1693;49.602;11.046;2022-08-11T14:42:59;41.90;27.80
3360;DHT22;1693;49.602;11.046;2022-08-11T14:45:45;41.70;28.20
3360;DHT22;1693;49.602;11.046;2022-08-11T14:48:31;41.50;28.90
3360;DHT22;1693;49.602;11.046;2022-08-11T14:50:58;43.00;28.90
3360;DHT22;1693;49.602;11.046;2022-08-11T14:53:25;42.70;28.90
3360;DHT22;1693;49.602;11.046;2022-08-11T14:58:38;43.70;28.50
3360;DHT22;1693;49.602;11.046;2022-08-11T15:01:06;42.80;28.20
3360;DHT22;1693;49.602;11.046;2022-08-11T15:03:54;43.40;29.40
3360;DHT22;1693;49.602;11.046;2022-08-11T15:06:21;42.80;27.50
3360;DHT22;1693;49.602;11.046;2022-08-11T15:08:53;42.50;28.10
3360;DHT22;1693;49.602;11.046;2022-08-11T15:11:22;42.00;28.70
3360;DHT22;1693;49.602;11.046;2022-08-11T15:14:09;41.50;28.30
3360;DHT22;1693;49.602;11.046;2022-08-11T15:16:40;41.70;29.40
3360;DHT22;1693;49.602;11.046;2022-08-11T15:19:27;42.50;28.20
3360;DHT22;1693;49.602;11.046;2022-08-11T15:21:58;42.20;28.30
3360;DHT22;1693;49.602;11.046;2022-08-11T15:24:43;43.20;29.00
3360;DHT22;1693;49.602;11.046;2022-08-11T15:27:12;43.00;29.40
3360;DHT22;1693;49.602;11.046;2022-08-11T15:29:59;44.20;29.50
3360;DHT22;1693;49.602;11.046;2022-08-11T15:32:47;43.30;28.10
3360;DHT22;1693;49.602;11.046;2022-08-11T15:35:39;42.70;27.90
3360;DHT22;1693;49.602;11.046;2022-08-11T15:38:24;41.30;28.10
3360;DHT22;1693;49.602;11.046;2022-08-11T15:40:55;41.90;29.20
3360;DHT22;1693;49.602;11.046;2022-08-11T15:43:44;41.80;28.60
3360;DHT22;1693;49.602;11.046;2022-08-11T15:46:31;42.20;29.00
3360;DHT22;1693;49.602;11.046;2022-08-11T15:49:03;41.70;28.70
3360;DHT22;1693;49.602;11.046;2022-08-11T15:51:35;42.50;29.50
3360;DHT22;1693;49.602;11.046;2022-08-11T15:54:06;42.80;28.60
3360;DHT22;1693;49.602;11.046;2022-08-11T15:56:35;41.90;28.40
3360;DHT22;1693;49.602;11.046;2022-08-11T15:59:05;41.10;28.70
3360;DHT22;1693;49.602;11.046;2022-08-11T16:01:52;42.00;29.60
3360;DHT22;1693;49.602;11.046;2022-08-11T16:04:40;42.10;28.20
3360;DHT22;1693;49.602;11.046;2022-08-11T16:07:10;42.50;29.00
3360;DHT22;1693;49.602;11.046;2022-08-11T16:09:40;42.00;28.50
3360;DHT22;1693;49.602;11.046;2022-08-11T16:14:41;41.90;29.10
3360;DHT22;1693;49.602;11.046;2022-08-11T16:17:29;42.30;28.80
3360;DHT22;1693;49.602;11.046;2022-08-11T16:19:59;42.40;28.70
3360;DHT22;1693;49.602;11.046;2022-08-11T16:22:28;41.70;29.20
3360;DHT22;1693;49.602;11.046;2022-08-11T16:25:04;42.30;28.40
3360;DHT22;1693;49.602;11.046;2022-08-11T16:27:36;41.10;28.20
3360;DHT22;1693;49.602;11.046;2022-08-11T16:30:05;41.00;29.30
3360;DHT22;1693;49.602;11.046;2022-08-11T16:32:33;40.60;30.50
3360;DHT22;1693;49.602;11.046;2022-08-11T16:35:05;40.70;28.80
3360;DHT22;1693;49.602;11.046;2022-08-11T16:37:51;40.70;29.10
3360;DHT22;1693;49.602;11.046;2022-08-11T16:40:38;40.30;29.10
3360;DHT22;1693;49.602;11.046;2022-08-11T16:43:08;39.60;28.80
3360;DHT22;1693;49.602;11.046;2022-08-11T16:45:56;39.90;29.00
3360;DHT22;1693;49.602;11.046;2022-08-11T16:48:42;40.00;29.40
3360;DHT22;1693;49.602;11.046;2022-08-11T16:51:13;40.10;29.20
3360;DHT22;1693;49.602;11.046;2022-08-11T16:53:42;40.30;29.10
3360;DHT22;1693;49.602;11.046;2022-08-11T16:56:11;41.10;29.00
3360;DHT22;1693;49.602;11.046;2022-08-11T16:58:42;41.40;28.70
3360;DHT22;1693;49.602;11.046;2022-08-11T17:01:27;41.40;28.70
3360;DHT22;1693;49.602;11.046;2022-08-11T17:04:01;41.50;28.40
3360;DHT22;1693;49.602;11.046;2022-08-11T17:06:50;41.40;28.60
3360;DHT22;1693;49.602;11.046;2022-08-11T17:09:42;40.30;28.40
3360;DHT22;1693;49.602;11.046;2022-08-11T17:12:31;40.00;28.80
3360;DHT22;1693;49.602;11.046;2022-08-11T17:15:18;40.30;29.20
3360;DHT22;1693;49.602;11.046;2022-08-11T17:18:06;40.40;29.10
3360;DHT22;1693;49.602;11.046;2022-08-11T17:20:35;40.00;29.30
3360;DHT22;1693;49.602;11.046;2022-08-11T17:23:06;40.20;29.60
3360;DHT22;1693;49.602;11.046;2022-08-11T17:25:51;40.00;28.90
3360;DHT22;1693;49.602;11.046;2022-08-11T17:28:19;39.60;29.00
3360;DHT22;1693;49.602;11.046;2022-08-11T17:30:48;39.20;28.70
3360;DHT22;1693;49.602;11.046;2022-08-11T17:33:38;38.30;28.90
3360;DHT22;1693;49.602;11.046;2022-08-11T17:36:22;36.40;29.70
3360;DHT22;1693;49.602;11.046;2022-08-11T17:38:51;34.80;30.90
3360;DHT22;1693;49.602;11.046;2022-08-11T17:41:20;33.50;31.30
3360;DHT22;1693;49.602;11.046;2022-08-11T17:44:05;32.80;33.00
3360;DHT22;1693;49.602;11.046;2022-08-11T17:46:50;31.80;33.20
3360;DHT22;1693;49.602;11.046;2022-08-11T17:49:37;30.90;33.70
3360;DHT22;1693;49.602;11.046;2022-08-11T17:52:06;30.50;35.60
3360;DHT22;1693;49.602;11.046;2022-08-11T17:54:54;29.90;36.40
3360;DHT22;1693;49.602;11.046;2022-08-11T17:57:40;29.50;36.00